»·PEaware :: BAW9601 KLAS-EGLL

BAW9601 :: KLAS-EGLL

FLIGHT INFORMATION

Flight Status: Arrived
Operator:
British Airways
More flights by this operator :: More flights under this callsign
Pilot: Henderson P. (1210)
Aircraft: BOEING 747-400 (WINGLETS)
(B744)
More flights by this aircraft type
Origin: KLAS McCarran Intl
United States
Destination: EGLL Heathrow
United Kingdom
More flights between these airports :: More routes between these airports
Route: +STAAV8 VERKN LARVE EKR BFF RWF SSM YYB DCT YQB DCT MIILS N211E NICSO/N0474F350 DCT 48N050W 50N040W 52N030W/M083F370 53N020W DCT MALOT/N0475F390 DCT GISTI DCT SLANY UL9 STU UP2 BEDEK
File this flight plan on PilotEdge
Remarks:
Altitude:
(Current/Filed)
33,000ft
Speed:
(Current/Filed)
484kts
Departed: 21-Feb-19 04:17 PM
Arrived: 22-Feb-19 01:30 AM
Distance/Time
Traveled:
4530nm/9:13
Distance/Time
To Go:
Arrived

Flight Plot

Page will automatically refresh every two minutes.

Flight plan parsing failed; only flown route is shown


Map Options




Map Legend


Flown Route
Filed Route
Departure Airport
Arrival Airport
Navaid (VOR, NDB)
Fix

Horizontal Profiles

Position Reports

Time Latitude Longitude Heading Altitude Ground
Speed
21-Feb-19 14:44 36.085423 -115.132830 0 2194ft 0kts
21-Feb-19 14:45 36.085423 -115.132830 0 2194ft 0kts
21-Feb-19 14:46 36.085423 -115.132830 0 2194ft 0kts
21-Feb-19 14:47 36.085423 -115.132830 0 2194ft 0kts
21-Feb-19 14:48 36.085423 -115.132830 0 2194ft 0kts
21-Feb-19 14:49 36.085423 -115.132830 0 2194ft 0kts
21-Feb-19 14:50 36.085423 -115.132830 0 2193ft 0kts
21-Feb-19 14:51 36.085423 -115.132830 0 2193ft 0kts
21-Feb-19 14:52 36.085423 -115.132830 0 2193ft 0kts
21-Feb-19 14:53 36.085423 -115.132830 0 2193ft 0kts
21-Feb-19 14:55 36.085423 -115.132830 0 2193ft 0kts
21-Feb-19 14:56 36.085423 -115.132830 0 2193ft 0kts
21-Feb-19 14:57 36.085423 -115.132830 0 2193ft 0kts
21-Feb-19 14:58 36.085423 -115.132830 0 2193ft 0kts
21-Feb-19 14:59 36.085423 -115.132830 0 2193ft 0kts
21-Feb-19 15:00 36.085423 -115.132830 0 2193ft 0kts
21-Feb-19 15:01 36.085423 -115.132830 0 2193ft 0kts
21-Feb-19 15:02 36.085423 -115.132830 0 2193ft 0kts
21-Feb-19 15:03 36.085423 -115.132830 0 2193ft 0kts
21-Feb-19 15:04 36.085423 -115.132830 0 2193ft 0kts
21-Feb-19 15:05 36.085423 -115.132830 0 2193ft 0kts
21-Feb-19 15:06 36.085423 -115.132830 0 2193ft 0kts
21-Feb-19 15:07 36.085423 -115.132830 0 2193ft 0kts
21-Feb-19 15:08 36.085423 -115.132830 0 2193ft 0kts
21-Feb-19 15:09 36.085423 -115.132830 0 2193ft 0kts
21-Feb-19 15:10 36.085423 -115.132830 0 2193ft 0kts
21-Feb-19 15:11 36.085423 -115.132830 0 2193ft 0kts
21-Feb-19 15:12 36.085423 -115.132830 0 2193ft 0kts
21-Feb-19 15:13 36.085423 -115.132830 0 2193ft 0kts
21-Feb-19 15:14 36.085423 -115.132830 0 2193ft 0kts
21-Feb-19 15:14 36.085423 -115.132830 0 2193ft 0kts
21-Feb-19 15:15 36.085423 -115.132830 0 2193ft 0kts
21-Feb-19 15:17 36.085423 -115.132830 0 2193ft 0kts
21-Feb-19 15:18 36.085423 -115.132830 0 2193ft 0kts
21-Feb-19 15:18 36.085423 -115.132830 0 2193ft 0kts
21-Feb-19 15:19 36.085423 -115.132830 0 2193ft 0kts
21-Feb-19 15:20 36.085423 -115.132830 0 2193ft 0kts
21-Feb-19 15:21 36.085423 -115.132830 0 2193ft 0kts
21-Feb-19 15:22 36.085423 -115.132830 0 2193ft 0kts
21-Feb-19 15:23 36.085423 -115.132830 0 2193ft 0kts
21-Feb-19 15:24 36.085423 -115.132830 0 2193ft 0kts
21-Feb-19 15:25 36.085423 -115.132830 0 2193ft 0kts
21-Feb-19 15:26 36.085423 -115.132830 0 2193ft 0kts
21-Feb-19 15:27 36.085423 -115.132830 0 2193ft 0kts
21-Feb-19 15:28 36.085423 -115.132830 0 2193ft 0kts
21-Feb-19 15:29 36.085423 -115.132830 0 2193ft 0kts
21-Feb-19 15:30 36.085423 -115.132830 0 2193ft 0kts
21-Feb-19 15:31 36.085423 -115.132830 0 2193ft 0kts
21-Feb-19 15:32 36.085423 -115.132830 0 2193ft 0kts
21-Feb-19 15:33 36.085423 -115.132830 0 2193ft 0kts
21-Feb-19 15:34 36.085423 -115.132830 0 2193ft 0kts
21-Feb-19 15:35 36.085423 -115.132830 0 2193ft 0kts
21-Feb-19 15:36 36.085423 -115.132830 0 2193ft 0kts
21-Feb-19 15:37 36.085423 -115.132830 0 2193ft 0kts
21-Feb-19 15:38 36.085423 -115.132830 0 2193ft 0kts
21-Feb-19 15:39 36.085209 -115.132835 5 2193ft 2kts
21-Feb-19 15:40 36.084619 -115.133070 42 2193ft 2kts
21-Feb-19 15:41 36.084450 -115.133516 89 2193ft 0kts
21-Feb-19 15:42 36.084450 -115.133516 89 2193ft 0kts
21-Feb-19 15:43 36.084450 -115.133516 89 2193ft 0kts
21-Feb-19 15:44 36.084450 -115.133516 89 2193ft 0kts
21-Feb-19 15:45 36.084450 -115.133516 89 2193ft 0kts
21-Feb-19 15:46 36.083586 -115.133232 180 2193ft 4kts
21-Feb-19 15:47 36.082477 -115.132946 174 2193ft 4kts
21-Feb-19 15:48 36.081262 -115.132925 179 2193ft 4kts
21-Feb-19 15:49 36.079868 -115.132931 180 2193ft 4kts
21-Feb-19 15:50 36.079095 -115.132930 179 2193ft 0kts
21-Feb-19 15:51 36.079094 -115.132930 179 2193ft 0kts
21-Feb-19 15:52 36.079094 -115.132930 179 2193ft 0kts
21-Feb-19 15:53 36.079093 -115.132930 179 2193ft 0kts
21-Feb-19 15:54 36.079092 -115.132930 179 2193ft 0kts
21-Feb-19 15:55 36.079091 -115.132930 179 2193ft 0kts
21-Feb-19 15:56 36.079091 -115.132930 179 2193ft 0kts
21-Feb-19 15:57 36.079090 -115.132930 179 2193ft 0kts
21-Feb-19 15:58 36.079089 -115.132930 179 2193ft 0kts
21-Feb-19 15:59 36.079088 -115.132930 179 2193ft 0kts
21-Feb-19 16:00 36.078281 -115.131564 90 2193ft 7kts
21-Feb-19 16:01 36.078287 -115.126809 90 2193ft 16kts
21-Feb-19 16:02 36.078015 -115.122308 127 2193ft 9kts
21-Feb-19 16:03 36.077509 -115.121556 132 2193ft 0kts
21-Feb-19 16:04 36.077508 -115.121555 132 2193ft 0kts
21-Feb-19 16:05 36.077508 -115.121554 132 2193ft 0kts
21-Feb-19 16:06 36.077507 -115.121553 132 2193ft 0kts
21-Feb-19 16:07 36.077506 -115.121553 132 2193ft 0kts
21-Feb-19 16:08 36.077506 -115.121552 132 2193ft 0kts
21-Feb-19 16:09 36.077505 -115.121551 132 2193ft 0kts
21-Feb-19 16:10 36.077505 -115.121550 132 2193ft 0kts
21-Feb-19 16:11 36.077504 -115.121550 132 2193ft 0kts
21-Feb-19 16:12 36.077504 -115.121549 132 2193ft 0kts
21-Feb-19 16:13 36.077503 -115.121548 132 2193ft 0kts
21-Feb-19 16:14 36.076431 -115.121702 260 2193ft 6kts
21-Feb-19 16:15 36.076423 -115.122174 269 2193ft 9kts
21-Feb-19 16:16 36.076393 -115.154862 270 2201ft 173kts
21-Feb-19 16:17 36.076305 -115.217493 270 3538ft 193kts
21-Feb-19 16:18 36.087786 -115.281956 323 5248ft 202kts
21-Feb-19 16:19 36.142625 -115.297019 16 6661ft 227kts
21-Feb-19 16:20 36.183029 -115.234518 68 7889ft 269kts
21-Feb-19 16:21 36.197797 -115.136718 87 9992ft 300kts
21-Feb-19 16:22 36.198369 -115.022201 89 10904ft 374kts
21-Feb-19 16:23 36.199455 -114.886060 89 13023ft 406kts
21-Feb-19 16:24 36.200116 -114.743209 92 15532ft 423kts
21-Feb-19 16:25 36.198514 -114.594566 93 17818ft 439kts
21-Feb-19 16:26 36.196617 -114.441748 94 19142ft 451kts
21-Feb-19 16:27 36.194300 -114.284859 94 21208ft 462kts
21-Feb-19 16:28 36.207357 -114.123576 84 22672ft 476kts
21-Feb-19 16:29 36.227054 -113.961343 85 22795ft 479kts
21-Feb-19 16:30 36.246395 -113.796506 84 24436ft 491kts
21-Feb-19 16:31 36.266520 -113.626601 85 25631ft 507kts
21-Feb-19 16:32 36.286893 -113.451043 85 26916ft 517kts
21-Feb-19 16:33 36.308315 -113.274108 76 28325ft 527kts
21-Feb-19 16:34 36.396410 -113.127943 43 29794ft 538kts
21-Feb-19 16:35 36.508757 -113.004556 41 31301ft 540kts
21-Feb-19 16:36 36.620018 -112.878861 41 32602ft 542kts
21-Feb-19 16:37 36.734505 -112.756494 38 32601ft 542kts
21-Feb-19 16:38 36.850188 -112.635730 39 32599ft 541kts
21-Feb-19 16:39 36.965555 -112.515004 39 32591ft 541kts
21-Feb-19 16:40 37.080767 -112.393821 39 32571ft 540kts
21-Feb-19 16:41 37.195658 -112.272679 39 32556ft 539kts
21-Feb-19 16:42 37.309661 -112.151315 40 32540ft 537kts
21-Feb-19 16:43 37.421655 -112.027215 44 32527ft 535kts
21-Feb-19 16:44 37.527390 -111.893918 45 32520ft 538kts
21-Feb-19 16:45 37.633227 -111.761291 45 32524ft 536kts
21-Feb-19 16:46 37.739418 -111.629233 45 32536ft 536kts
21-Feb-19 16:47 37.845143 -111.496467 45 32555ft 537kts
21-Feb-19 16:48 37.951252 -111.362556 45 32591ft 538kts
21-Feb-19 16:49 38.057104 -111.228388 45 32622ft 535kts
21-Feb-19 16:50 38.162054 -111.094777 45 32651ft 536kts
21-Feb-19 16:51 38.267172 -110.960374 45 32668ft 537kts
21-Feb-19 16:52 38.372451 -110.825177 46 32678ft 538kts
21-Feb-19 16:53 38.477695 -110.689448 46 32681ft 539kts
21-Feb-19 16:54 38.582977 -110.553033 46 32677ft 539kts
21-Feb-19 16:55 38.688402 -110.415841 46 32671ft 540kts
21-Feb-19 16:57 38.793574 -110.278364 46 32661ft 540kts
21-Feb-19 16:58 38.898461 -110.141119 46 32655ft 538kts
21-Feb-19 16:59 39.002649 -110.003306 46 32652ft 537kts
21-Feb-19 17:00 39.096643 -109.853153 59 32651ft 539kts
21-Feb-19 17:01 39.178120 -109.692088 59 32652ft 537kts
21-Feb-19 17:02 39.260999 -109.530995 58 32656ft 537kts
21-Feb-19 17:03 39.343907 -109.370364 59 32668ft 537kts
21-Feb-19 17:04 39.426278 -109.209157 59 32672ft 537kts
21-Feb-19 17:05 39.508242 -109.047859 59 32676ft 538kts
21-Feb-19 17:06 39.591690 -108.882781 59 32688ft 558kts
21-Feb-19 17:07 39.676813 -108.713503 59 32687ft 560kts
21-Feb-19 17:08 39.761984 -108.543216 59 32689ft 561kts
21-Feb-19 17:09 39.846685 -108.372965 58 32682ft 561kts
21-Feb-19 17:10 39.931336 -108.202672 58 32672ft 560kts
21-Feb-19 17:11 40.015228 -108.031649 59 32663ft 560kts
21-Feb-19 17:12 40.097651 -107.858550 62 32660ft 560kts
21-Feb-19 17:13 40.174143 -107.681771 62 32672ft 559kts
21-Feb-19 17:14 40.250932 -107.505272 61 32700ft 558kts
21-Feb-19 17:15 40.328369 -107.328798 62 32718ft 559kts
21-Feb-19 17:15 40.392204 -107.181408 62 32716ft 559kts
21-Feb-19 17:16 40.468923 -107.003153 62 32705ft 560kts
21-Feb-19 17:18 40.557877 -106.795134 62 32690ft 561kts
21-Feb-19 17:19 40.634163 -106.615620 63 32700ft 562kts
21-Feb-19 17:19 40.697648 -106.465358 63 32707ft 562kts
21-Feb-19 17:20 40.773608 -106.284613 63 32710ft 562kts
21-Feb-19 17:21 40.848975 -106.104204 63 32712ft 561kts
21-Feb-19 17:22 40.923886 -105.923806 63 32725ft 563kts
21-Feb-19 17:23 40.999045 -105.741714 63 32759ft 561kts
21-Feb-19 17:24 41.073539 -105.560125 64 32782ft 560kts
21-Feb-19 17:25 41.147486 -105.378768 64 32793ft 561kts
21-Feb-19 17:26 41.221518 -105.196090 64 32821ft 561kts
21-Feb-19 17:27 41.295146 -105.013288 64 32851ft 561kts
21-Feb-19 17:28 41.368295 -104.830541 64 32864ft 561kts
21-Feb-19 17:29 41.441465 -104.646607 64 32890ft 560kts
21-Feb-19 17:30 41.514043 -104.463005 64 32922ft 559kts
21-Feb-19 17:31 41.586131 -104.279507 65 32943ft 557kts
21-Feb-19 17:32 41.657709 -104.096150 65 32970ft 556kts
21-Feb-19 17:33 41.728896 -103.912646 65 32987ft 555kts
21-Feb-19 17:34 41.800182 -103.728723 65 33002ft 556kts
21-Feb-19 17:35 41.870702 -103.543756 65 33009ft 559kts
21-Feb-19 17:36 41.939198 -103.356391 67 33008ft 560kts
21-Feb-19 17:37 42.005960 -103.166700 67 33017ft 562kts
21-Feb-19 17:38 42.072936 -102.977737 67 33032ft 558kts
21-Feb-19 17:39 42.139741 -102.788654 67 33031ft 561kts
21-Feb-19 17:40 42.206292 -102.597901 68 33041ft 563kts
21-Feb-19 17:41 42.272891 -102.405577 68 33402ft 569kts
21-Feb-19 17:42 42.339637 -102.211468 68 33801ft 572kts
21-Feb-19 17:43 42.406348 -102.016082 68 34201ft 573kts
21-Feb-19 17:44 42.472901 -101.819778 68 34601ft 573kts
21-Feb-19 17:45 42.538966 -101.623484 68 35001ft 572kts
21-Feb-19 17:46 42.604882 -101.426236 68 35133ft 572kts
21-Feb-19 17:47 42.670132 -101.229561 69 35156ft 572kts
21-Feb-19 17:48 42.735189 -101.032020 69 35176ft 572kts
21-Feb-19 17:49 42.799666 -100.834815 69 35196ft 572kts
21-Feb-19 17:50 42.864022 -100.636518 69 35218ft 572kts
21-Feb-19 17:51 42.928009 -100.437893 69 35220ft 572kts
21-Feb-19 17:52 42.991795 -100.238402 69 35225ft 572kts
21-Feb-19 17:53 43.054937 -100.039444 69 35237ft 571kts
21-Feb-19 17:54 43.118188 -99.838625 69 35257ft 574kts
21-Feb-19 17:55 43.180961 -99.637795 69 35265ft 572kts
21-Feb-19 17:56 43.243189 -99.437174 69 35268ft 573kts
21-Feb-19 17:57 43.305136 -99.235926 69 35280ft 574kts
21-Feb-19 17:58 43.366894 -99.033733 70 35286ft 574kts
21-Feb-19 17:59 43.428383 -98.830815 70 35292ft 575kts
21-Feb-19 18:00 43.489734 -98.626757 70 35316ft 575kts
21-Feb-19 18:01 43.550370 -98.423472 70 35334ft 574kts
21-Feb-19 18:02 43.610720 -98.219517 70 35348ft 574kts
21-Feb-19 18:03 43.670673 -98.015286 70 35357ft 573kts
21-Feb-19 18:04 43.730133 -97.811070 70 35354ft 573kts
21-Feb-19 18:05 43.789259 -97.606352 70 35331ft 574kts
21-Feb-19 18:06 43.848366 -97.400012 71 35296ft 575kts
21-Feb-19 18:07 43.907073 -97.193373 71 35271ft 576kts
21-Feb-19 18:08 43.965369 -96.986444 71 35263ft 578kts
21-Feb-19 18:09 44.023585 -96.778049 71 35278ft 575kts
21-Feb-19 18:10 44.081125 -96.570354 71 35277ft 576kts
21-Feb-19 18:11 44.138379 -96.361906 71 35279ft 578kts
21-Feb-19 18:12 44.195421 -96.152466 71 35285ft 578kts
21-Feb-19 18:13 44.252072 -95.942597 72 35304ft 579kts
21-Feb-19 18:14 44.308407 -95.732083 72 35312ft 579kts
21-Feb-19 18:15 44.364606 -95.521013 71 35310ft 578kts
21-Feb-19 18:16 44.420156 -95.309926 72 35322ft 579kts
21-Feb-19 18:17 44.474825 -95.098006 73 35336ft 579kts
21-Feb-19 18:18 44.524076 -94.883214 74 35336ft 579kts
21-Feb-19 18:19 44.572952 -94.668127 74 35329ft 580kts
21-Feb-19 18:20 44.623243 -94.452258 74 35325ft 582kts
21-Feb-19 18:21 44.672322 -94.235925 75 35323ft 582kts
21-Feb-19 18:22 44.720889 -94.019192 75 35320ft 582kts
21-Feb-19 18:23 44.769298 -93.800861 75 35324ft 585kts
21-Feb-19 18:24 44.817242 -93.582407 75 35336ft 584kts
21-Feb-19 18:25 44.864725 -93.363795 75 35341ft 584kts
21-Feb-19 18:26 44.911903 -93.144265 75 35353ft 585kts
21-Feb-19 18:27 44.958720 -92.924117 75 35362ft 585kts
21-Feb-19 18:28 45.005006 -92.704118 76 35350ft 586kts
21-Feb-19 18:29 45.051140 -92.482457 76 35343ft 586kts
21-Feb-19 18:30 45.096664 -92.261324 76 35341ft 586kts
21-Feb-19 18:31 45.141870 -92.039294 76 35342ft 586kts
21-Feb-19 18:32 45.186746 -91.816413 76 35338ft 591kts
21-Feb-19 18:33 45.231328 -91.592514 76 35341ft 590kts
21-Feb-19 18:34 45.275610 -91.367479 76 35335ft 591kts
21-Feb-19 18:35 45.319444 -91.142161 76 35337ft 593kts
21-Feb-19 18:36 45.362882 -90.916244 77 35334ft 594kts
21-Feb-19 18:37 45.406017 -90.689215 77 35324ft 595kts
21-Feb-19 18:38 45.448829 -90.461193 77 35308ft 595kts
21-Feb-19 18:39 45.491019 -90.233702 77 35292ft 595kts
21-Feb-19 18:40 45.532853 -90.005348 77 35295ft 594kts
21-Feb-19 18:41 45.574232 -89.776674 77 35294ft 597kts
21-Feb-19 18:42 45.615273 -89.546978 77 35266ft 598kts
21-Feb-19 18:43 45.656080 -89.315656 78 35261ft 601kts
21-Feb-19 18:44 45.696610 -89.082905 78 35262ft 604kts
21-Feb-19 18:45 45.736717 -88.849501 78 35265ft 606kts
21-Feb-19 18:46 45.776531 -88.614683 78 35269ft 607kts
21-Feb-19 18:47 45.815969 -88.379009 78 35267ft 607kts
21-Feb-19 18:48 45.854861 -88.143162 78 35260ft 607kts
21-Feb-19 18:49 45.893186 -87.907608 78 35260ft 606kts
21-Feb-19 18:50 45.931069 -87.671454 78 35262ft 608kts
21-Feb-19 18:51 45.968477 -87.434895 79 35267ft 610kts
21-Feb-19 18:52 46.005806 -87.195410 79 35281ft 612kts
21-Feb-19 18:53 46.042091 -86.959061 78 35281ft 606kts
21-Feb-19 18:54 46.078127 -86.721036 78 35283ft 610kts
21-Feb-19 18:55 46.113900 -86.480862 79 35287ft 614kts
21-Feb-19 18:56 46.149313 -86.239560 79 35287ft 617kts
21-Feb-19 18:57 46.184375 -85.996787 79 35286ft 618kts
21-Feb-19 18:59 46.218934 -85.753652 79 35279ft 618kts
21-Feb-19 19:00 46.252931 -85.510542 79 35271ft 617kts
21-Feb-19 19:01 46.286346 -85.267643 79 35269ft 615kts
21-Feb-19 19:02 46.315601 -85.051586 79 35261ft 615kts
21-Feb-19 19:03 46.348039 -84.808165 79 35250ft 616kts
21-Feb-19 19:04 46.380438 -84.563721 80 35243ft 620kts
21-Feb-19 19:05 46.410708 -84.317555 84 35229ft 622kts
21-Feb-19 19:06 46.414947 -84.066738 93 35261ft 622kts
21-Feb-19 19:07 46.415541 -83.815699 92 35259ft 623kts
21-Feb-19 19:08 46.417985 -83.565464 92 35250ft 621kts
21-Feb-19 19:09 46.419035 -83.315194 92 35244ft 619kts
21-Feb-19 19:10 46.419438 -83.065875 92 35239ft 619kts
21-Feb-19 19:11 46.419291 -82.816197 92 35221ft 620kts
21-Feb-19 19:12 46.418605 -82.565996 92 35213ft 623kts
21-Feb-19 19:13 46.417349 -82.313486 92 35199ft 627kts
21-Feb-19 19:14 46.415542 -82.060753 93 35192ft 629kts
21-Feb-19 19:15 46.413167 -81.806946 93 35181ft 630kts
21-Feb-19 19:16 46.410230 -81.553562 93 35191ft 628kts
21-Feb-19 19:17 46.407090 -81.323758 93 35182ft 626kts
21-Feb-19 19:18 46.403152 -81.073857 93 35175ft 624kts
21-Feb-19 19:18 46.399424 -80.864155 93 35170ft 624kts
21-Feb-19 19:20 46.393575 -80.571198 93 35169ft 627kts
21-Feb-19 19:21 46.387916 -80.318048 93 35167ft 629kts
21-Feb-19 19:21 46.382773 -80.106819 93 35164ft 631kts
21-Feb-19 19:22 46.376736 -79.871008 93 35157ft 632kts
21-Feb-19 19:24 46.368251 -79.574537 94 35151ft 630kts
21-Feb-19 19:24 46.367965 -79.363903 85 35151ft 628kts
21-Feb-19 19:25 46.387692 -79.112983 82 35150ft 625kts
21-Feb-19 19:26 46.406445 -78.862727 82 35151ft 624kts
21-Feb-19 19:27 46.425174 -78.612697 82 35154ft 626kts
21-Feb-19 19:28 46.442737 -78.361453 82 35150ft 628kts
21-Feb-19 19:29 46.459826 -78.108422 82 35152ft 630kts
21-Feb-19 19:30 46.476344 -77.855700 83 35154ft 630kts
21-Feb-19 19:31 46.492287 -77.602313 83 35156ft 627kts
21-Feb-19 19:32 46.507526 -77.351672 83 35157ft 624kts
21-Feb-19 19:33 46.522235 -77.100543 83 35153ft 622kts
21-Feb-19 19:34 46.536340 -76.850237 83 35148ft 621kts
21-Feb-19 19:35 46.549883 -76.600136 83 35143ft 622kts
21-Feb-19 19:36 46.562936 -76.348809 84 35138ft 624kts
21-Feb-19 19:37 46.575468 -76.096760 84 35132ft 625kts
21-Feb-19 19:38 46.587422 -75.845109 84 35128ft 625kts
21-Feb-19 19:39 46.598819 -75.593474 84 35117ft 623kts
21-Feb-19 19:40 46.609629 -75.342630 84 35094ft 620kts
21-Feb-19 19:41 46.619852 -75.092449 84 35092ft 618kts
21-Feb-19 19:42 46.629494 -74.843352 84 35090ft 617kts
21-Feb-19 19:43 46.638602 -74.593914 84 35085ft 618kts
21-Feb-19 19:44 46.647193 -74.343533 84 35074ft 620kts
21-Feb-19 19:45 46.655238 -74.093217 84 35071ft 621kts
21-Feb-19 19:46 46.662752 -73.842357 84 35058ft 619kts
21-Feb-19 19:47 46.669691 -73.592288 85 35036ft 618kts
21-Feb-19 19:48 46.676077 -73.342526 85 35032ft 617kts
21-Feb-19 19:49 46.681920 -73.092745 85 35032ft 615kts
21-Feb-19 19:50 46.687200 -72.844485 85 35032ft 614kts
21-Feb-19 19:51 46.691939 -72.596048 85 35027ft 615kts
21-Feb-19 19:52 46.696139 -72.346497 86 35014ft 617kts
21-Feb-19 19:53 46.699826 -72.096589 86 34993ft 618kts
21-Feb-19 19:54 46.703277 -71.846201 86 34970ft 617kts
21-Feb-19 19:55 46.706258 -71.596524 83 34955ft 614kts
21-Feb-19 19:56 46.719948 -71.348972 82 34967ft 610kts
21-Feb-19 19:57 46.732620 -71.103502 81 34969ft 607kts
21-Feb-19 19:58 46.746233 -70.858037 82 34963ft 606kts
21-Feb-19 19:59 46.758312 -70.613046 82 34950ft 607kts
21-Feb-19 20:00 46.769847 -70.367002 82 34940ft 607kts
21-Feb-19 20:01 46.780825 -70.121371 82 34925ft 608kts
21-Feb-19 20:02 46.791315 -69.874927 82 34910ft 606kts
21-Feb-19 20:03 46.801194 -69.630186 83 34900ft 604kts
21-Feb-19 20:04 46.810573 -69.384964 83 34876ft 603kts
21-Feb-19 20:05 46.819371 -69.141135 83 34887ft 602kts
21-Feb-19 20:06 46.827659 -68.897103 84 34888ft 601kts
21-Feb-19 20:07 46.835440 -68.652747 84 34893ft 601kts
21-Feb-19 20:08 46.842688 -68.408586 84 34894ft 602kts
21-Feb-19 20:09 46.848867 -68.185030 84 34887ft 602kts
21-Feb-19 20:10 46.855125 -67.940723 85 34879ft 601kts
21-Feb-19 20:11 46.860844 -67.697312 85 34876ft 600kts
21-Feb-19 20:12 46.866482 -67.453302 85 34870ft 599kts
21-Feb-19 20:13 46.870936 -67.210889 86 34866ft 598kts
21-Feb-19 20:14 46.880573 -66.968979 78 34860ft 595kts
21-Feb-19 20:15 46.906584 -66.730946 77 34860ft 592kts
21-Feb-19 20:16 46.931449 -66.492662 76 34857ft 592kts
21-Feb-19 20:17 46.956685 -66.254512 77 34845ft 591kts
21-Feb-19 20:18 46.980617 -66.016530 77 34844ft 591kts
21-Feb-19 20:19 47.003950 -65.778611 78 34844ft 589kts
21-Feb-19 20:20 47.026715 -65.541168 78 34846ft 588kts
21-Feb-19 20:21 47.048945 -65.303985 78 34844ft 587kts
21-Feb-19 20:22 47.070685 -65.066632 78 34841ft 587kts
21-Feb-19 20:23 47.091911 -64.829337 78 34837ft 586kts
21-Feb-19 20:24 47.112593 -64.592477 79 34827ft 585kts
21-Feb-19 20:25 47.132814 -64.355297 79 34825ft 584kts
21-Feb-19 20:26 47.152427 -64.119037 79 34812ft 583kts
21-Feb-19 20:27 47.171527 -63.883057 79 34811ft 581kts
21-Feb-19 20:28 47.190163 -63.646650 80 34813ft 581kts
21-Feb-19 20:29 47.208292 -63.410369 80 34815ft 582kts
21-Feb-19 20:30 47.225938 -63.173882 80 34818ft 582kts
21-Feb-19 20:31 47.243123 -62.936892 80 34824ft 582kts
21-Feb-19 20:32 47.259762 -62.700555 80 34829ft 581kts
21-Feb-19 20:33 47.275929 -62.463883 81 34836ft 579kts
21-Feb-19 20:34 47.291528 -62.228291 81 34842ft 577kts
21-Feb-19 20:35 47.306358 -61.997026 80 34846ft 560kts
21-Feb-19 20:36 47.320547 -61.768684 81 34849ft 559kts
21-Feb-19 20:37 47.334261 -61.540469 81 34848ft 560kts
21-Feb-19 20:38 47.347581 -61.311106 81 34846ft 561kts
21-Feb-19 20:39 47.360409 -61.082232 81 34842ft 561kts
21-Feb-19 20:40 47.372835 -60.852251 81 34838ft 561kts
21-Feb-19 20:41 47.384744 -60.623566 82 34833ft 559kts
21-Feb-19 20:42 47.396152 -60.395149 82 34829ft 557kts
21-Feb-19 20:43 47.407111 -60.166944 82 34827ft 556kts
21-Feb-19 20:44 47.417560 -59.939660 82 34834ft 555kts
21-Feb-19 20:45 47.427566 -59.712201 83 34835ft 555kts
21-Feb-19 20:46 47.437152 -59.484219 83 35052ft 559kts
21-Feb-19 20:47 47.446333 -59.254617 83 35451ft 560kts
21-Feb-19 20:48 47.455061 -59.024776 83 35851ft 561kts
21-Feb-19 20:49 47.463358 -58.794043 84 36251ft 561kts
21-Feb-19 20:50 47.471186 -58.563943 84 36651ft 560kts
21-Feb-19 20:51 47.478525 -58.333848 84 36839ft 559kts
21-Feb-19 20:52 47.485383 -58.104981 84 36842ft 558kts
21-Feb-19 20:53 47.491775 -57.876146 84 36843ft 557kts
21-Feb-19 20:54 47.497734 -57.646535 85 36846ft 557kts
21-Feb-19 20:55 47.503212 -57.417918 85 36849ft 559kts
21-Feb-19 20:56 47.508268 -57.187530 85 36843ft 559kts
21-Feb-19 20:57 47.512866 -56.957725 85 36845ft 560kts
21-Feb-19 20:58 47.517003 -56.727440 86 36847ft 559kts
21-Feb-19 20:59 47.520645 -56.498155 86 36848ft 557kts
21-Feb-19 21:00 47.523844 -56.269370 86 36848ft 556kts
21-Feb-19 21:01 47.526569 -56.041145 86 36849ft 555kts
21-Feb-19 21:02 47.528853 -55.812232 86 36845ft 555kts
21-Feb-19 21:04 47.530676 -55.584189 87 36840ft 555kts
21-Feb-19 21:05 47.532049 -55.355581 87 36834ft 556kts
21-Feb-19 21:06 47.532971 -55.126335 87 36827ft 557kts
21-Feb-19 21:07 47.533435 -54.897239 87 36823ft 556kts
21-Feb-19 21:08 47.533444 -54.668217 87 36866ft 556kts
21-Feb-19 21:09 47.532997 -54.439436 88 36836ft 554kts
21-Feb-19 21:10 47.532100 -54.211436 88 36841ft 553kts
21-Feb-19 21:11 47.530755 -53.984041 88 36849ft 553kts
21-Feb-19 21:12 47.528968 -53.757449 88 36859ft 551kts
21-Feb-19 21:13 47.526731 -53.529960 88 36874ft 553kts
21-Feb-19 21:14 47.524050 -53.302332 88 36896ft 553kts
21-Feb-19 21:15 47.520884 -53.074428 89 36936ft 553kts
21-Feb-19 21:16 47.517290 -52.846884 89 36918ft 555kts
21-Feb-19 21:17 47.513251 -52.619494 89 36717ft 553kts
21-Feb-19 21:18 47.509252 -52.392064 89 36690ft 551kts
21-Feb-19 21:18 47.504996 -52.203901 89 36692ft 550kts
21-Feb-19 21:20 47.515885 -51.942832 69 36701ft 543kts
21-Feb-19 21:21 47.567717 -51.735496 64 36788ft 535kts
21-Feb-19 21:22 47.620555 -51.529413 64 36794ft 536kts
21-Feb-19 21:22 47.665456 -51.356771 64 36694ft 536kts
21-Feb-19 21:24 47.726590 -51.115403 64 36690ft 537kts
21-Feb-19 21:25 47.778746 -50.906940 64 36689ft 536kts
21-Feb-19 21:25 47.821649 -50.733896 65 36689ft 536kts
21-Feb-19 21:26 47.872934 -50.525316 65 36688ft 535kts
21-Feb-19 21:27 47.923974 -50.317965 65 36687ft 534kts
21-Feb-19 21:28 47.973980 -50.109072 65 36686ft 533kts
21-Feb-19 21:29 48.024558 -49.901530 64 36684ft 533kts
21-Feb-19 21:30 48.076144 -49.693769 65 36683ft 533kts
21-Feb-19 21:31 48.127322 -49.485927 64 36681ft 532kts
21-Feb-19 21:32 48.179226 -49.278709 65 36681ft 530kts
21-Feb-19 21:33 48.229900 -49.071149 65 36676ft 530kts
21-Feb-19 21:34 48.280085 -48.863249 65 36674ft 530kts
21-Feb-19 21:35 48.329891 -48.654881 65 36672ft 530kts
21-Feb-19 21:36 48.379446 -48.445576 66 36669ft 530kts
21-Feb-19 21:37 48.428373 -48.236922 66 36666ft 530kts
21-Feb-19 21:38 48.477172 -48.026784 66 36662ft 530kts
21-Feb-19 21:39 48.525426 -47.816957 66 36659ft 529kts
21-Feb-19 21:40 48.573140 -47.607442 66 36656ft 528kts
21-Feb-19 21:41 48.620615 -47.396869 67 36652ft 528kts
21-Feb-19 21:42 48.667561 -47.186588 67 36649ft 528kts
21-Feb-19 21:43 48.713962 -46.976605 67 36645ft 527kts
21-Feb-19 21:44 48.760175 -46.765429 67 36642ft 526kts
21-Feb-19 21:45 48.805770 -46.554816 67 36637ft 527kts
21-Feb-19 21:46 48.851089 -46.343392 68 36632ft 525kts
21-Feb-19 21:47 48.895874 -46.132245 68 36628ft 526kts
21-Feb-19 21:48 48.940305 -45.920596 68 36623ft 524kts
21-Feb-19 21:49 48.984219 -45.709180 68 36619ft 524kts
21-Feb-19 21:50 49.027691 -45.497679 69 36614ft 524kts
21-Feb-19 21:51 49.070881 -45.285267 69 36652ft 523kts
21-Feb-19 21:52 49.113550 -45.073151 69 36650ft 523kts
21-Feb-19 21:53 49.155848 -44.860621 69 36647ft 523kts
21-Feb-19 21:54 49.197701 -44.647934 70 36645ft 522kts
21-Feb-19 21:55 49.239085 -44.435331 70 36642ft 522kts
21-Feb-19 21:56 49.279990 -44.222816 70 36638ft 521kts
21-Feb-19 21:57 49.320586 -44.009531 71 36635ft 521kts
21-Feb-19 21:58 49.360588 -43.796970 71 36632ft 519kts
21-Feb-19 21:59 49.400247 -43.583854 71 36628ft 519kts
21-Feb-19 22:00 49.439435 -43.370735 71 36625ft 519kts
21-Feb-19 22:01 49.478278 -43.157126 72 36622ft 518kts
21-Feb-19 22:02 49.516682 -42.943304 72 36618ft 518kts
21-Feb-19 22:03 49.554679 -42.729290 72 36615ft 517kts
21-Feb-19 22:04 49.592134 -42.515765 73 36472ft 516kts
21-Feb-19 22:05 49.629093 -42.302541 73 36396ft 515kts
21-Feb-19 22:06 49.665633 -42.089113 73 36388ft 514kts
21-Feb-19 22:07 49.701771 -41.875439 74 36381ft 513kts
21-Feb-19 22:08 49.737370 -41.662334 74 36374ft 513kts
21-Feb-19 22:09 49.772741 -41.447910 74 36368ft 513kts
21-Feb-19 22:10 49.807572 -41.234069 74 36361ft 513kts
21-Feb-19 22:11 49.842046 -41.019702 75 36355ft 512kts
21-Feb-19 22:12 49.876107 -40.805137 75 36349ft 512kts
21-Feb-19 22:13 49.909707 -40.590729 75 36343ft 511kts
21-Feb-19 22:14 49.943362 -40.376763 76 36337ft 510kts
21-Feb-19 22:15 49.975784 -40.161903 76 36331ft 509kts
21-Feb-19 22:16 50.011653 -39.949819 69 36328ft 509kts
21-Feb-19 22:17 50.063391 -39.744349 68 36320ft 509kts
21-Feb-19 22:18 50.114132 -39.538849 68 36315ft 508kts
21-Feb-19 22:19 50.165529 -39.334107 68 36309ft 507kts
21-Feb-19 22:20 50.216128 -39.128281 69 36304ft 506kts
21-Feb-19 22:21 50.265896 -38.922862 69 36299ft 506kts
21-Feb-19 22:22 50.315368 -38.716577 69 36294ft 505kts
21-Feb-19 22:23 50.364309 -38.510523 69 36289ft 505kts
21-Feb-19 22:24 50.412973 -38.303671 70 36284ft 505kts
21-Feb-19 22:25 50.461154 -38.096897 70 36279ft 505kts
21-Feb-19 22:26 50.509057 -37.889320 70 36275ft 505kts
21-Feb-19 22:27 50.556482 -37.681857 70 36273ft 505kts
21-Feb-19 22:28 50.603678 -37.473230 71 36266ft 504kts
21-Feb-19 22:29 50.650157 -37.265781 71 36262ft 503kts
21-Feb-19 22:30 50.696497 -37.056886 71 36293ft 502kts
21-Feb-19 22:31 50.742253 -36.848547 72 36355ft 503kts
21-Feb-19 22:32 50.787638 -36.639787 72 36353ft 502kts
21-Feb-19 22:33 50.832610 -36.430818 72 36351ft 502kts
21-Feb-19 22:34 50.877350 -36.220775 72 36349ft 502kts
21-Feb-19 22:35 50.921560 -36.011056 73 36347ft 502kts
21-Feb-19 22:36 50.965376 -35.801030 73 36345ft 500kts
21-Feb-19 22:37 51.008746 -35.590975 73 36343ft 500kts
21-Feb-19 22:38 51.051557 -35.381374 74 36343ft 500kts
21-Feb-19 22:39 51.094130 -35.170707 74 36341ft 500kts
21-Feb-19 22:40 51.136228 -34.960123 74 36340ft 499kts
21-Feb-19 22:41 51.177991 -34.748955 74 36362ft 498kts
21-Feb-19 22:42 51.219259 -34.537990 75 36433ft 498kts
21-Feb-19 22:43 51.260142 -34.326682 75 36431ft 497kts
21-Feb-19 22:44 51.300524 -34.115617 75 36429ft 497kts
21-Feb-19 22:45 51.340524 -33.904212 76 36427ft 496kts
21-Feb-19 22:46 51.380020 -33.693074 76 36426ft 496kts
21-Feb-19 22:47 51.419302 -33.480690 76 36424ft 496kts
21-Feb-19 22:48 51.458047 -33.268766 76 36423ft 496kts
21-Feb-19 22:49 51.496549 -33.055732 77 36421ft 496kts
21-Feb-19 22:50 51.534576 -32.842810 77 36420ft 496kts
21-Feb-19 22:51 51.572154 -32.629912 77 36418ft 496kts
21-Feb-19 22:52 51.609377 -32.416475 78 36418ft 495kts
21-Feb-19 22:53 51.646201 -32.202761 78 36416ft 494kts
21-Feb-19 22:54 51.682554 -31.989186 78 36415ft 494kts
21-Feb-19 22:55 51.718548 -31.775158 78 36415ft 494kts
21-Feb-19 22:56 51.754079 -31.561130 79 36413ft 494kts
21-Feb-19 22:57 51.789343 -31.346067 79 36412ft 495kts
21-Feb-19 22:58 51.824220 -31.130638 79 36411ft 495kts
21-Feb-19 22:59 51.858622 -30.915408 80 36409ft 495kts
21-Feb-19 23:00 51.892746 -30.699128 80 36410ft 495kts
21-Feb-19 23:01 51.926544 -30.483163 80 36408ft 495kts
21-Feb-19 23:02 51.960033 -30.266859 81 36408ft 494kts
21-Feb-19 23:03 51.992443 -30.050570 81 36425ft 493kts
21-Feb-19 23:04 52.023661 -29.834520 82 36430ft 493kts
21-Feb-19 23:05 52.053923 -29.617628 82 36449ft 492kts
21-Feb-19 23:06 52.084215 -29.400587 81 36449ft 492kts
21-Feb-19 23:08 52.115306 -29.183201 82 36451ft 493kts
21-Feb-19 23:09 52.145241 -28.965089 83 36639ft 495kts
21-Feb-19 23:10 52.174762 -28.745875 83 37039ft 496kts
21-Feb-19 23:11 52.204161 -28.524013 83 37436ft 505kts
21-Feb-19 23:12 52.233323 -28.300492 83 37835ft 505kts
21-Feb-19 23:13 52.262195 -28.075728 84 38235ft 505kts
21-Feb-19 23:14 52.290604 -27.850822 84 38405ft 506kts
21-Feb-19 23:15 52.318522 -27.626185 84 38405ft 504kts
21-Feb-19 23:16 52.346067 -27.400894 84 38405ft 504kts
21-Feb-19 23:17 52.373107 -27.175878 85 38406ft 504kts
21-Feb-19 23:18 52.399687 -26.950881 85 38436ft 503kts
21-Feb-19 23:19 52.425847 -26.725558 86 38436ft 503kts
21-Feb-19 23:20 52.451620 -26.499620 86 38437ft 504kts
21-Feb-19 23:21 52.476981 -26.273231 86 38438ft 505kts
21-Feb-19 23:22 52.501911 -26.046558 86 38438ft 505kts
21-Feb-19 23:23 52.526445 -25.819355 87 38438ft 506kts
21-Feb-19 23:24 52.550571 -25.591518 87 38441ft 506kts
21-Feb-19 23:25 52.574241 -25.363655 87 38442ft 505kts
21-Feb-19 23:26 52.597471 -25.135579 87 38443ft 505kts
21-Feb-19 23:27 52.620217 -24.907737 87 38646ft 506kts
21-Feb-19 23:27 52.638944 -24.716580 88 38658ft 507kts
21-Feb-19 23:28 52.660975 -24.487393 88 38663ft 508kts
21-Feb-19 23:30 52.686192 -24.218902 88 38669ft 509kts
21-Feb-19 23:31 52.707348 -23.988314 88 38613ft 508kts
21-Feb-19 23:31 52.724681 -23.795363 89 38617ft 510kts
21-Feb-19 23:32 52.744992 -23.564451 89 38622ft 509kts
21-Feb-19 23:33 52.764900 -23.332884 89 38644ft 509kts
21-Feb-19 23:34 52.784263 -23.102230 89 38699ft 508kts
21-Feb-19 23:35 52.803310 -22.869765 90 38721ft 509kts
21-Feb-19 23:36 52.821862 -22.637677 90 38727ft 509kts
21-Feb-19 23:37 52.839941 -22.405514 90 38774ft 510kts
21-Feb-19 23:38 52.857649 -22.172292 90 38779ft 510kts
21-Feb-19 23:39 52.874802 -21.939950 91 38729ft 511kts
21-Feb-19 23:40 52.891659 -21.705343 91 38830ft 512kts
21-Feb-19 23:41 52.907982 -21.471491 91 38840ft 511kts
21-Feb-19 23:42 52.923869 -21.237210 91 38846ft 511kts
21-Feb-19 23:43 52.939252 -21.003431 91 38853ft 512kts
21-Feb-19 23:44 52.954226 -20.768730 92 38859ft 511kts
21-Feb-19 23:45 52.968795 -20.533174 92 38866ft 513kts
21-Feb-19 23:46 52.983332 -20.298036 92 38873ft 512kts
21-Feb-19 23:47 52.996468 -20.063311 92 39034ft 512kts
21-Feb-19 23:48 53.003850 -19.827247 97 39071ft 510kts
21-Feb-19 23:49 53.006949 -19.592403 97 39076ft 508kts
21-Feb-19 23:50 53.010675 -19.357885 96 39082ft 509kts
21-Feb-19 23:51 53.014971 -19.122545 97 39088ft 509kts
21-Feb-19 23:52 53.018048 -18.887554 97 39093ft 510kts
21-Feb-19 23:53 53.020563 -18.652470 98 39099ft 509kts
21-Feb-19 23:54 53.022606 -18.417290 98 39104ft 509kts
21-Feb-19 23:55 53.024185 -18.181828 98 39110ft 510kts
21-Feb-19 23:56 53.025309 -17.946735 99 39115ft 510kts
21-Feb-19 23:57 53.025951 -17.710688 99 39121ft 511kts
21-Feb-19 23:58 53.026133 -17.474478 99 39101ft 511kts
21-Feb-19 23:59 53.025851 -17.238622 99 39106ft 511kts
22-Feb-19 00:00 53.025105 -17.002066 100 39112ft 513kts
22-Feb-19 00:01 53.023882 -16.765569 100 39116ft 512kts
22-Feb-19 00:02 53.022182 -16.528157 100 39121ft 514kts
22-Feb-19 00:03 53.020017 -16.291125 100 39126ft 513kts
22-Feb-19 00:04 53.017380 -16.053898 101 39130ft 513kts
22-Feb-19 00:05 53.014273 -15.816610 101 39135ft 516kts
22-Feb-19 00:06 53.010672 -15.578193 101 39139ft 517kts
22-Feb-19 00:07 53.007185 -15.339742 102 39143ft 516kts
22-Feb-19 00:08 53.002159 -15.101147 102 39157ft 517kts
22-Feb-19 00:09 52.999986 -14.861844 99 39161ft 522kts
22-Feb-19 00:10 53.000353 -14.620170 100 39163ft 522kts
22-Feb-19 00:11 53.001554 -14.378472 100 39166ft 524kts
22-Feb-19 00:12 53.000628 -14.136976 100 39169ft 523kts
22-Feb-19 00:13 52.994213 -13.896881 107 39172ft 518kts
22-Feb-19 00:14 52.976086 -13.660382 108 39174ft 516kts
22-Feb-19 00:15 52.958304 -13.424502 107 39176ft 517kts
22-Feb-19 00:16 52.942106 -13.186575 108 39179ft 519kts
22-Feb-19 00:17 52.924435 -12.949086 108 39181ft 520kts
22-Feb-19 00:18 52.906022 -12.710722 108 39183ft 521kts
22-Feb-19 00:19 52.887121 -12.472695 108 39185ft 522kts
22-Feb-19 00:20 52.867713 -12.234545 109 39190ft 523kts
22-Feb-19 00:21 52.847820 -11.996250 109 39194ft 523kts
22-Feb-19 00:22 52.827210 -11.755829 109 39193ft 528kts
22-Feb-19 00:23 52.806201 -11.516428 109 39194ft 528kts
22-Feb-19 00:24 52.784597 -11.276032 109 39195ft 528kts
22-Feb-19 00:25 52.762588 -11.036619 109 39196ft 529kts
22-Feb-19 00:26 52.739996 -10.796532 109 39197ft 528kts
22-Feb-19 00:27 52.716947 -10.556915 109 39198ft 530kts
22-Feb-19 00:28 52.693337 -10.316704 109 39223ft 533kts
22-Feb-19 00:29 52.669090 -10.075360 109 39224ft 534kts
22-Feb-19 00:30 52.644245 -9.833247 109 39225ft 536kts
22-Feb-19 00:31 52.618933 -9.591514 109 39230ft 536kts
22-Feb-19 00:32 52.593142 -9.350293 109 39242ft 535kts
22-Feb-19 00:33 52.566909 -9.109732 109 39252ft 534kts
22-Feb-19 00:34 52.540254 -8.870100 108 39256ft 534kts
22-Feb-19 00:35 52.513019 -8.629883 108 39253ft 536kts
22-Feb-19 00:36 52.485188 -8.389032 108 39268ft 537kts
22-Feb-19 00:37 52.456846 -8.148252 108 39278ft 539kts
22-Feb-19 00:38 52.427848 -7.906452 108 39282ft 540kts
22-Feb-19 00:39 52.398500 -7.666012 108 39286ft 538kts
22-Feb-19 00:40 52.368658 -7.425965 108 39286ft 537kts
22-Feb-19 00:41 52.338495 -7.187506 108 39287ft 535kts
22-Feb-19 00:42 52.307954 -6.950111 108 39289ft 534kts
22-Feb-19 00:43 52.276874 -6.712578 107 39289ft 534kts
22-Feb-19 00:44 52.245330 -6.475215 107 39302ft 535kts
22-Feb-19 00:45 52.213738 -6.237084 107 39327ft 537kts
22-Feb-19 00:46 52.180770 -6.000167 107 39357ft 536kts
22-Feb-19 00:47 52.144229 -5.765592 113 39389ft 533kts
22-Feb-19 00:48 52.096786 -5.538016 113 39446ft 528kts
22-Feb-19 00:49 52.051235 -5.311271 113 39465ft 526kts
22-Feb-19 00:50 52.004557 -5.087482 113 39478ft 522kts
22-Feb-19 00:51 51.957195 -4.863847 112 39486ft 526kts
22-Feb-19 00:52 51.909052 -4.640316 112 39491ft 522kts
22-Feb-19 00:53 51.861789 -4.419017 111 39494ft 521kts
22-Feb-19 00:54 51.814119 -4.197595 112 39497ft 520kts
22-Feb-19 00:55 51.765767 -3.977410 112 39500ft 519kts
22-Feb-19 00:56 51.717297 -3.758772 111 39507ft 518kts
22-Feb-19 00:57 51.668637 -3.540276 112 39512ft 516kts
22-Feb-19 00:58 51.619197 -3.323863 112 39544ft 513kts
22-Feb-19 00:59 51.585202 -3.102110 102 38812ft 512kts
22-Feb-19 01:00 51.555388 -2.877884 103 35606ft 512kts
22-Feb-19 01:01 51.525727 -2.656092 103 32721ft 498kts
22-Feb-19 01:02 51.497480 -2.443589 104 30271ft 476kts
22-Feb-19 01:03 51.468821 -2.240623 105 27823ft 458kts
22-Feb-19 01:04 51.441074 -2.045110 105 25417ft 441kts
22-Feb-19 01:05 51.414499 -1.856475 107 23062ft 425kts
22-Feb-19 01:06 51.388009 -1.675615 107 20748ft 411kts
22-Feb-19 01:07 51.362509 -1.500139 106 18471ft 398kts
22-Feb-19 01:08 51.338992 -1.342448 107 16416ft 387kts
22-Feb-19 01:09 51.314631 -1.177016 102 14273ft 376kts
22-Feb-19 01:10 51.311796 -1.024021 93 12380ft 367kts
22-Feb-19 01:11 51.310420 -0.875657 94 11114ft 337kts
22-Feb-19 01:12 51.308951 -0.737685 94 10627ft 291kts
22-Feb-19 01:13 51.307445 -0.612856 94 10309ft 262kts
22-Feb-19 01:14 51.305814 -0.499351 94 9172ft 250kts
22-Feb-19 01:15 51.296525 -0.391769 110 7910ft 241kts
22-Feb-19 01:16 51.273213 -0.291996 124 7603ft 237kts
22-Feb-19 01:17 51.221100 -0.299625 242 7605ft 237kts
22-Feb-19 01:18 51.250803 -0.388477 321 7621ft 254kts
22-Feb-19 01:19 51.313808 -0.384342 50 7561ft 256kts
22-Feb-19 01:21 51.336563 -0.280815 80 7028ft 245kts
22-Feb-19 01:22 51.356190 -0.176321 73 6679ft 245kts
22-Feb-19 01:23 51.400355 -0.104004 10 5410ft 237kts
22-Feb-19 01:24 51.459224 -0.104706 339 4265ft 200kts
22-Feb-19 01:25 51.478564 -0.181001 270 3140ft 189kts
22-Feb-19 01:26 51.478272 -0.261952 266 2174ft 169kts
22-Feb-19 01:27 51.478014 -0.334681 267 1303ft 160kts
22-Feb-19 01:28 51.477788 -0.401997 269 503ft 145kts
22-Feb-19 01:29 51.477594 -0.458206 269 96ft 49kts
22-Feb-19 01:30 51.476106 -0.460653 180 96ft 5kts
22-Feb-19 01:31 51.475161 -0.461653 257 96ft 3kts
22-Feb-19 01:32 51.475154 -0.462979 270 96ft 2kts
22-Feb-19 01:33 51.474492 -0.463992 179 96ft 2kts
22-Feb-19 01:34 51.474333 -0.463990 179 96ft 0kts
22-Feb-19 01:35 51.474333 -0.463990 179 96ft 0kts
22-Feb-19 01:36 51.474333 -0.463990 179 96ft 0kts

Navigation Log

Ident Type
Flight plan parsing failed, navigation log unavailable